Elk Garden, Virginia
Current Conditions -  °F | °C
As of 9:55 AM on Friday 26 Dec 2014 (Local Time) from KJFZ Reporting Station
Clear Clear  
Wind Chill: 35°   Ceiling: Unl
Heat Index: 35°   Visibility: 10mi
Dew Point: 27°   Wind: 0mph
Humidity: 71%   Direction: NA
Pressure: 30.31"   Gusts: NA
Location:  37.0328°N, 82.0042°W
Report Text: KJFZ 261455Z AUTO 00000KT 10SM CLR 02/M03 A3031 RMK AO2 T00191028
Loading
Personal Weather Stations






























Interactive Weather Map New forecast layout! Learn more

10-Day Weather Forecast

Advertisements
Track Severe Weather on mobile